createdAt,value
2019-03-24T00:00:26.566Z,9.90
2019-03-24T00:01:41.108Z,9.80
2019-03-24T00:02:39.893Z,9.80
2019-03-24T00:03:43.063Z,9.70
2019-03-24T00:04:46.193Z,9.80
2019-03-24T00:05:49.353Z,9.80
2019-03-24T00:06:52.484Z,9.80
2019-03-24T00:07:56.947Z,9.80
2019-03-24T00:09:00.287Z,9.80
2019-03-24T00:10:04.128Z,9.70
2019-03-24T00:11:07.303Z,9.80
2019-03-24T00:12:10.489Z,9.80
2019-03-24T00:13:14.125Z,9.80
2019-03-24T00:14:17.241Z,9.80
2019-03-24T00:15:26.085Z,9.80
2019-03-24T00:16:26.120Z,9.80
2019-03-24T00:17:29.357Z,9.80
2019-03-24T00:18:32.658Z,9.80
2019-03-24T00:19:35.802Z,9.90
2019-03-24T00:20:39.057Z,9.90
2019-03-24T00:21:42.315Z,9.80
2019-03-24T00:22:45.854Z,9.80
2019-03-24T00:23:49.287Z,9.80
2019-03-24T00:24:52.537Z,9.80
2019-03-24T00:25:55.768Z,9.80
2019-03-24T00:26:58.892Z,9.70
2019-03-24T00:28:02.280Z,9.60
2019-03-24T00:29:05.512Z,9.60
2019-03-24T00:30:10.481Z,9.60
2019-03-24T00:31:13.920Z,9.60
2019-03-24T00:32:17.354Z,9.70
2019-03-24T00:33:20.837Z,9.60
2019-03-24T00:34:24.245Z,9.60
2019-03-24T00:35:27.614Z,9.60
2019-03-24T00:36:31.047Z,9.70
2019-03-24T00:37:34.439Z,9.70
2019-03-24T00:38:37.705Z,9.70
2019-03-24T00:39:40.984Z,9.70
2019-03-24T00:40:45.012Z,9.70
2019-03-24T00:41:48.206Z,9.70
2019-03-24T00:42:51.621Z,9.70
2019-03-24T00:43:55.130Z,9.70
2019-03-24T00:44:58.363Z,9.80
2019-03-24T00:46:01.883Z,9.80
2019-03-24T00:47:05.250Z,9.70
2019-03-24T00:48:09.025Z,9.60
2019-03-24T00:49:12.216Z,9.50
2019-03-24T00:50:15.462Z,9.50
2019-03-24T00:51:19.033Z,9.50
2019-03-24T00:52:22.214Z,9.60
2019-03-24T00:53:25.657Z,9.70
2019-03-24T00:54:29.019Z,9.70
2019-03-24T00:55:34.344Z,9.70
2019-03-24T00:56:37.594Z,9.80
2019-03-24T00:57:41.020Z,9.70
2019-03-24T00:58:44.384Z,9.70
2019-03-24T00:59:47.864Z,9.70
2019-03-24T01:00:51.853Z,9.70
2019-03-24T01:01:55.022Z,9.60
2019-03-24T01:02:58.699Z,9.60
2019-03-24T01:04:02.105Z,9.70
2019-03-24T01:05:06.203Z,9.60
2019-03-24T01:06:09.955Z,9.50
2019-03-24T01:07:13.658Z,9.60
2019-03-24T01:08:18.150Z,9.60
2019-03-24T01:09:22.202Z,9.70
2019-03-24T01:10:25.981Z,9.60
2019-03-24T01:11:31.218Z,9.60
2019-03-24T01:12:37.769Z,9.60
2019-03-24T01:13:42.727Z,9.50
2019-03-24T01:14:46.564Z,9.40
2019-03-24T01:15:50.949Z,9.30
2019-03-24T01:16:55.003Z,9.30
2019-03-24T01:17:58.714Z,9.30
2019-03-24T01:19:02.989Z,9.20
2019-03-24T01:20:07.356Z,9.20
2019-03-24T01:21:11.614Z,9.10
2019-03-24T01:22:16.626Z,9.10
2019-03-24T01:23:24.802Z,9.00
2019-03-24T01:24:29.770Z,8.90
2019-03-24T01:25:34.400Z,8.90
2019-03-24T01:26:38.783Z,8.90
2019-03-24T01:27:43.125Z,8.90
2019-03-24T01:28:47.233Z,8.90
2019-03-24T01:29:50.768Z,9.00
2019-03-24T01:30:54.284Z,9.00
2019-03-24T01:31:58.205Z,9.00
2019-03-24T01:33:03.230Z,9.00
2019-03-24T01:34:08.028Z,9.00
2019-03-24T01:35:11.987Z,9.00
2019-03-24T01:36:15.632Z,9.10
2019-03-24T01:37:19.563Z,9.10
2019-03-24T01:38:24.043Z,9.00
2019-03-24T01:39:27.929Z,9.00
2019-03-24T01:40:31.889Z,9.00
2019-03-24T01:41:37.028Z,9.00
2019-03-24T01:42:41.416Z,9.00
2019-03-24T01:43:47.319Z,9.00
2019-03-24T01:44:52.231Z,9.00
2019-03-24T01:45:58.761Z,8.90
2019-03-24T01:47:03.457Z,9.00
2019-03-24T01:48:09.056Z,9.00
2019-03-24T01:49:13.753Z,8.90
2019-03-24T01:50:18.301Z,9.00
2019-03-24T01:51:21.834Z,8.90
2019-03-24T01:52:25.026Z,8.90
2019-03-24T01:53:28.182Z,9.00
2019-03-24T01:54:31.464Z,9.00
2019-03-24T01:55:34.694Z,9.00
2019-03-24T01:56:37.946Z,9.10
2019-03-24T01:57:41.119Z,9.10
2019-03-24T01:58:44.281Z,9.10
2019-03-24T01:59:49.325Z,9.10
2019-03-24T02:00:52.857Z,9.10
2019-03-24T02:01:56.093Z,9.20
2019-03-24T02:02:59.337Z,9.10
2019-03-24T02:04:02.437Z,9.10
2019-03-24T02:05:06.904Z,9.10
2019-03-24T02:06:10.269Z,9.00
2019-03-24T02:07:13.722Z,9.10
2019-03-24T02:08:17.095Z,9.10
2019-03-24T02:09:20.351Z,9.10
2019-03-24T02:10:23.619Z,9.00
2019-03-24T02:11:27.055Z,8.90
2019-03-24T02:12:30.459Z,8.90
2019-03-24T02:13:33.752Z,8.80
2019-03-24T02:14:37.107Z,8.90
2019-03-24T02:15:40.305Z,8.80
2019-03-24T02:16:43.658Z,8.80
2019-03-24T02:17:46.800Z,8.90
2019-03-24T02:18:50.032Z,9.00
2019-03-24T02:19:53.319Z,9.00
2019-03-24T02:20:58.264Z,9.10
2019-03-24T02:22:01.814Z,9.10
2019-03-24T02:23:05.273Z,9.20
2019-03-24T02:24:09.714Z,9.10
2019-03-24T02:25:13.385Z,9.00
2019-03-24T02:26:16.523Z,8.90
2019-03-24T02:27:19.676Z,8.80
2019-03-24T02:28:22.856Z,8.90
2019-03-24T02:29:26.246Z,8.90
2019-03-24T02:30:29.418Z,8.80
2019-03-24T02:31:32.848Z,8.80
2019-03-24T02:32:36.336Z,8.90
2019-03-24T02:33:39.691Z,9.00
2019-03-24T02:34:43.039Z,9.00
2019-03-24T02:35:46.304Z,9.00
2019-03-24T02:36:50.145Z,9.10
2019-03-24T02:37:53.251Z,9.10
2019-03-24T02:38:56.793Z,9.20
2019-03-24T02:39:59.947Z,9.20
2019-03-24T02:41:03.048Z,9.20
2019-03-24T02:42:06.219Z,9.20
2019-03-24T02:43:09.425Z,9.30
2019-03-24T02:44:12.601Z,9.30
2019-03-24T02:45:15.722Z,9.10
2019-03-24T02:46:24.623Z,9.10
2019-03-24T02:47:23.947Z,9.10
2019-03-24T02:48:27.256Z,9.00
2019-03-24T02:49:30.604Z,8.90
2019-03-24T02:50:33.856Z,8.80
2019-03-24T02:51:37.214Z,8.90
2019-03-24T02:52:40.421Z,9.00
2019-03-24T02:53:44.762Z,9.00
2019-03-24T02:54:48.003Z,9.00
2019-03-24T02:55:51.468Z,9.00
2019-03-24T02:56:54.728Z,9.00
2019-03-24T02:57:57.915Z,9.00
2019-03-24T02:59:01.260Z,9.10
2019-03-24T03:00:06.156Z,9.10
2019-03-24T03:01:09.331Z,9.20
2019-03-24T03:02:12.500Z,9.20
2019-03-24T03:03:16.029Z,9.20
2019-03-24T03:04:19.300Z,9.20
2019-03-24T03:05:22.748Z,9.20
2019-03-24T03:06:26.223Z,9.20
2019-03-24T03:07:29.653Z,9.20
2019-03-24T03:08:33.027Z,9.20
2019-03-24T03:09:36.451Z,9.20
2019-03-24T03:10:39.594Z,9.20
2019-03-24T03:11:42.718Z,9.20
2019-03-24T03:12:47.749Z,9.20
2019-03-24T03:13:51.517Z,9.10
2019-03-24T03:14:54.917Z,9.10
2019-03-24T03:15:58.386Z,9.20
2019-03-24T03:17:01.720Z,9.20
2019-03-24T03:18:05.042Z,9.10
2019-03-24T03:19:08.269Z,9.10
2019-03-24T03:20:12.482Z,9.10
2019-03-24T03:21:15.934Z,9.10
2019-03-24T03:22:19.093Z,9.10
2019-03-24T03:23:22.272Z,9.00
2019-03-24T03:24:25.768Z,9.00
2019-03-24T03:25:29.027Z,9.00
2019-03-24T03:26:32.365Z,8.90
2019-03-24T03:27:35.635Z,9.00
2019-03-24T03:28:39.685Z,9.00
2019-03-24T03:29:42.932Z,9.00
2019-03-24T03:30:46.274Z,8.90
2019-03-24T03:31:49.759Z,8.90
2019-03-24T03:32:53.212Z,8.90
2019-03-24T03:33:56.647Z,8.90
2019-03-24T03:34:59.830Z,8.90
2019-03-24T03:36:03.105Z,8.90
2019-03-24T03:37:06.665Z,9.00
2019-03-24T03:38:09.922Z,9.00
2019-03-24T03:39:13.389Z,8.90
2019-03-24T03:40:17.134Z,8.90
2019-03-24T03:41:20.505Z,8.90
2019-03-24T03:42:23.795Z,8.80
2019-03-24T03:43:27.097Z,8.80
2019-03-24T03:44:30.904Z,8.80
2019-03-24T03:45:34.253Z,8.80
2019-03-24T03:46:51.493Z,8.80
2019-03-24T03:47:43.147Z,8.90
2019-03-24T03:48:46.372Z,8.90
2019-03-24T03:49:50.162Z,8.80
2019-03-24T03:50:53.639Z,8.80
2019-03-24T03:51:56.877Z,8.70
2019-03-24T03:53:00.322Z,8.70
2019-03-24T03:54:03.805Z,8.70
2019-03-24T03:55:07.590Z,8.70
2019-03-24T03:56:11.238Z,8.60
2019-03-24T03:57:14.459Z,8.50
2019-03-24T03:58:17.905Z,8.60
2019-03-24T03:59:21.083Z,8.60
2019-03-24T04:00:35.368Z,8.60
2019-03-24T04:01:38.477Z,8.60
2019-03-24T04:02:41.891Z,8.50
2019-03-24T04:03:45.233Z,8.50
2019-03-24T04:04:48.704Z,8.40
2019-03-24T04:05:51.968Z,8.40
2019-03-24T04:06:55.292Z,8.40
2019-03-24T04:07:58.811Z,8.40
2019-03-24T04:09:02.151Z,8.40
2019-03-24T04:10:05.865Z,8.40
2019-03-24T04:11:09.213Z,8.40
2019-03-24T04:12:12.575Z,8.40
2019-03-24T04:13:15.969Z,8.40
2019-03-24T04:14:19.308Z,8.40
2019-03-24T04:15:22.534Z,8.30
2019-03-24T04:16:25.683Z,8.30
2019-03-24T04:17:29.023Z,8.40
2019-03-24T04:18:32.394Z,8.30
2019-03-24T04:19:35.963Z,8.30
2019-03-24T04:20:39.168Z,8.20
2019-03-24T04:21:42.701Z,8.30
2019-03-24T04:22:46.160Z,8.20
2019-03-24T04:23:49.782Z,8.20
2019-03-24T04:24:52.999Z,8.20
2019-03-24T04:25:56.256Z,8.20
2019-03-24T04:26:59.408Z,8.20
2019-03-24T04:28:02.870Z,8.10
2019-03-24T04:29:06.134Z,8.10
2019-03-24T04:30:09.638Z,8.10
2019-03-24T04:31:12.883Z,8.10
2019-03-24T04:32:16.327Z,8.00
2019-03-24T04:33:19.482Z,8.00
2019-03-24T04:34:22.633Z,8.10
2019-03-24T04:35:27.764Z,8.10
2019-03-24T04:36:31.125Z,8.10
2019-03-24T04:37:34.659Z,8.10
2019-03-24T04:38:37.897Z,8.10
2019-03-24T04:39:41.390Z,8.10
2019-03-24T04:40:44.726Z,8.10
2019-03-24T04:41:48.029Z,8.10
2019-03-24T04:42:51.284Z,8.10
2019-03-24T04:43:54.529Z,8.10
2019-03-24T04:44:57.917Z,8.00
2019-03-24T04:46:01.348Z,8.00
2019-03-24T04:47:04.844Z,8.00
2019-03-24T04:48:08.287Z,7.90
2019-03-24T04:49:11.613Z,7.90
2019-03-24T04:50:15.203Z,7.90
2019-03-24T04:51:18.592Z,7.90
2019-03-24T04:52:21.875Z,7.90
2019-03-24T04:53:25.114Z,7.90
2019-03-24T04:54:28.593Z,7.90
2019-03-24T04:55:32.149Z,7.90
2019-03-24T04:56:35.423Z,7.80
2019-03-24T04:57:39.063Z,7.90
2019-03-24T04:58:44.027Z,7.90
2019-03-24T04:59:47.311Z,7.90
2019-03-24T05:00:50.527Z,8.00
2019-03-24T05:01:53.896Z,8.00
2019-03-24T05:02:57.390Z,8.00
2019-03-24T05:04:00.666Z,7.90
2019-03-24T05:05:03.903Z,7.90
2019-03-24T05:06:07.333Z,7.90
2019-03-24T05:07:10.863Z,7.90
2019-03-24T05:08:14.695Z,7.90
2019-03-24T05:09:17.869Z,7.90
2019-03-24T05:10:27.411Z,8.00
2019-03-24T05:11:30.666Z,8.00
2019-03-24T05:12:33.935Z,8.00
2019-03-24T05:13:37.102Z,8.00
2019-03-24T05:14:40.602Z,8.10
2019-03-24T05:15:43.849Z,8.10
2019-03-24T05:16:46.999Z,8.00
2019-03-24T05:17:50.621Z,8.00
2019-03-24T05:18:53.757Z,7.90
2019-03-24T05:19:57.237Z,7.90
2019-03-24T05:21:00.682Z,7.90
2019-03-24T05:22:04.026Z,7.80
2019-03-24T05:23:07.451Z,7.80
2019-03-24T05:24:10.636Z,7.70
2019-03-24T05:25:13.818Z,7.80
2019-03-24T05:26:17.168Z,7.70
2019-03-24T05:27:20.438Z,7.60
2019-03-24T05:28:23.899Z,7.60
2019-03-24T05:29:27.322Z,7.70
2019-03-24T05:30:30.480Z,7.70
2019-03-24T05:31:33.864Z,7.80
2019-03-24T05:32:37.000Z,7.90
2019-03-24T05:33:40.115Z,7.90
2019-03-24T05:34:43.516Z,8.00
2019-03-24T05:35:46.683Z,8.00
2019-03-24T05:36:50.276Z,8.00
2019-03-24T05:37:53.619Z,8.00
2019-03-24T05:38:56.911Z,8.00
2019-03-24T05:40:00.442Z,8.00
2019-03-24T05:41:03.700Z,8.10
2019-03-24T05:42:06.979Z,8.10
2019-03-24T05:43:10.156Z,8.20
2019-03-24T05:44:13.405Z,8.10
2019-03-24T05:45:16.505Z,8.10
2019-03-24T05:46:20.199Z,8.10
2019-03-24T05:47:23.477Z,8.10
2019-03-24T05:48:26.906Z,8.20
2019-03-24T05:49:30.234Z,8.20
2019-03-24T05:50:33.616Z,8.10
2019-03-24T05:51:36.931Z,7.90
2019-03-24T05:52:40.128Z,7.80
2019-03-24T05:53:43.275Z,7.80
2019-03-24T05:54:46.502Z,7.90
2019-03-24T05:55:49.638Z,7.90
2019-03-24T05:56:53.022Z,7.70
2019-03-24T05:57:58.090Z,7.70
2019-03-24T05:59:01.240Z,7.70
2019-03-24T06:00:05.255Z,7.60
2019-03-24T06:01:08.507Z,7.50
2019-03-24T06:02:11.882Z,7.50
2019-03-24T06:03:16.258Z,7.50
2019-03-24T06:04:19.506Z,7.70
2019-03-24T06:05:22.729Z,7.70
2019-03-24T06:06:26.319Z,7.90
2019-03-24T06:07:30.563Z,7.90
2019-03-24T06:08:35.796Z,7.80
2019-03-24T06:09:39.131Z,7.80
2019-03-24T06:10:42.602Z,7.80
2019-03-24T06:11:45.886Z,7.70
2019-03-24T06:12:49.355Z,7.70
2019-03-24T06:13:52.486Z,7.90
2019-03-24T06:14:56.217Z,8.00
2019-03-24T06:15:59.673Z,8.00
2019-03-24T06:17:03.123Z,7.80
2019-03-24T06:18:06.293Z,7.90
2019-03-24T06:19:09.939Z,7.80
2019-03-24T06:20:13.510Z,7.60
2019-03-24T06:21:16.677Z,7.60
2019-03-24T06:22:20.032Z,7.50
2019-03-24T06:23:23.289Z,7.50
2019-03-24T06:24:26.997Z,7.60
2019-03-24T06:25:30.411Z,7.70
2019-03-24T06:26:33.707Z,7.70
2019-03-24T06:27:36.854Z,7.60
2019-03-24T06:28:40.301Z,7.60
2019-03-24T06:29:43.761Z,7.50
2019-03-24T06:30:47.138Z,7.50
2019-03-24T06:31:50.382Z,7.50
2019-03-24T06:32:55.216Z,7.50
2019-03-24T06:33:58.662Z,7.50
2019-03-24T06:35:02.013Z,7.50
2019-03-24T06:36:05.483Z,7.60
2019-03-24T06:37:08.793Z,7.70
2019-03-24T06:38:12.246Z,7.60
2019-03-24T06:39:15.546Z,7.70
2019-03-24T06:40:19.917Z,7.80
2019-03-24T06:41:23.216Z,7.90
2019-03-24T06:42:26.428Z,8.00
2019-03-24T06:43:29.594Z,7.90
2019-03-24T06:44:32.839Z,7.90
2019-03-24T06:45:36.197Z,7.80
2019-03-24T06:46:39.495Z,7.80
2019-03-24T06:47:43.045Z,7.80
2019-03-24T06:48:46.414Z,7.90
2019-03-24T06:49:49.917Z,7.80
2019-03-24T06:50:54.343Z,7.80
2019-03-24T06:51:57.468Z,7.70
2019-03-24T06:53:00.743Z,7.70
2019-03-24T06:54:04.133Z,7.70
2019-03-24T06:55:08.325Z,7.80
2019-03-24T06:56:11.646Z,7.80
2019-03-24T06:57:17.017Z,7.90
2019-03-24T06:58:21.057Z,8.10
2019-03-24T06:59:24.872Z,8.10
2019-03-24T07:00:28.031Z,8.00
2019-03-24T07:01:31.262Z,8.00
2019-03-24T07:02:34.715Z,7.90
2019-03-24T07:03:38.187Z,7.90
2019-03-24T07:04:41.545Z,7.90
2019-03-24T07:05:45.117Z,7.90
2019-03-24T07:06:48.491Z,7.90
2019-03-24T07:07:52.064Z,7.90
2019-03-24T07:08:55.316Z,8.00
2019-03-24T07:09:58.887Z,8.00
2019-03-24T07:11:02.126Z,7.90
2019-03-24T07:12:05.539Z,8.00
2019-03-24T07:13:09.000Z,8.10
2019-03-24T07:14:12.378Z,8.30
2019-03-24T07:15:15.751Z,8.40
2019-03-24T07:16:19.107Z,8.50
2019-03-24T07:17:22.353Z,8.50
2019-03-24T07:18:25.720Z,8.60
2019-03-24T07:19:29.168Z,8.70
2019-03-24T07:20:32.362Z,8.80
2019-03-24T07:21:35.847Z,8.80
2019-03-24T07:22:38.972Z,8.80
2019-03-24T07:23:42.373Z,8.90
2019-03-24T07:24:45.618Z,9.00
2019-03-24T07:25:49.096Z,8.90
2019-03-24T07:26:52.436Z,8.90
2019-03-24T07:27:55.756Z,8.80
2019-03-24T07:28:58.909Z,9.00
2019-03-24T07:30:02.077Z,9.00
2019-03-24T07:31:05.438Z,9.00
2019-03-24T07:32:08.796Z,9.00
2019-03-24T07:33:12.137Z,9.00
2019-03-24T07:34:15.451Z,9.10
2019-03-24T07:35:18.696Z,9.10
2019-03-24T07:36:21.945Z,9.10
2019-03-24T07:37:25.130Z,9.20
2019-03-24T07:38:28.655Z,9.20
2019-03-24T07:39:31.851Z,9.20
2019-03-24T07:40:35.179Z,9.30
2019-03-24T07:41:38.416Z,9.30
2019-03-24T07:42:41.820Z,9.30
2019-03-24T07:43:45.192Z,9.30
2019-03-24T07:44:48.677Z,9.30
2019-03-24T07:45:52.119Z,9.40
2019-03-24T07:46:55.385Z,9.40
2019-03-24T07:47:59.053Z,9.40
2019-03-24T07:49:02.191Z,9.40
2019-03-24T07:50:06.347Z,9.40
2019-03-24T07:51:09.480Z,9.40
2019-03-24T07:52:12.809Z,9.40
2019-03-24T07:53:16.277Z,9.50
2019-03-24T07:54:19.667Z,9.60
2019-03-24T07:55:23.139Z,9.60
2019-03-24T07:56:26.527Z,9.50
2019-03-24T07:57:29.667Z,9.60
2019-03-24T07:58:32.776Z,9.60
2019-03-24T07:59:36.045Z,9.70
2019-03-24T08:00:39.334Z,9.70
2019-03-24T08:01:42.500Z,9.70
2019-03-24T08:02:51.464Z,9.70
2019-03-24T08:03:54.880Z,9.80
2019-03-24T08:04:58.044Z,9.70
2019-03-24T08:06:01.218Z,9.80
2019-03-24T08:07:04.634Z,9.90
2019-03-24T08:08:07.813Z,9.90
2019-03-24T08:09:11.151Z,10.00
2019-03-24T08:10:14.927Z,10.10
2019-03-24T08:11:19.435Z,10.20
2019-03-24T08:12:22.793Z,10.40
2019-03-24T08:13:26.127Z,10.50
2019-03-24T08:14:29.443Z,10.70
2019-03-24T08:15:33.085Z,10.90
2019-03-24T08:16:36.347Z,11.00
2019-03-24T08:17:39.928Z,11.20
2019-03-24T08:18:43.180Z,11.30
2019-03-24T08:19:47.596Z,11.50
2019-03-24T08:20:50.914Z,11.70
2019-03-24T08:21:54.162Z,11.90
2019-03-24T08:22:57.487Z,12.10
2019-03-24T08:24:00.952Z,12.00
2019-03-24T08:25:04.759Z,12.20
2019-03-24T08:26:08.132Z,12.30
2019-03-24T08:27:11.297Z,12.50
2019-03-24T08:28:14.582Z,12.70
2019-03-24T08:29:18.012Z,12.80
2019-03-24T08:30:34.777Z,12.90
2019-03-24T08:31:38.448Z,13.00
2019-03-24T08:32:43.013Z,13.20
2019-03-24T08:33:46.533Z,13.30
2019-03-24T08:34:49.766Z,13.40
2019-03-24T08:35:53.062Z,13.40
2019-03-24T08:36:56.471Z,13.50
2019-03-24T08:38:01.457Z,13.40
2019-03-24T08:39:05.777Z,13.60
2019-03-24T08:40:09.310Z,13.60
2019-03-24T08:41:13.554Z,13.70
2019-03-24T08:42:17.072Z,13.70
2019-03-24T08:43:20.286Z,13.70
2019-03-24T08:44:23.462Z,13.70
2019-03-24T08:45:27.777Z,13.80
2019-03-24T08:46:31.278Z,13.80
2019-03-24T08:47:34.779Z,13.80
2019-03-24T08:48:41.171Z,13.90
2019-03-24T08:49:43.298Z,13.80
2019-03-24T08:50:46.442Z,13.90
2019-03-24T08:51:51.253Z,13.90
2019-03-24T08:52:54.638Z,13.90
2019-03-24T08:53:57.901Z,14.10
2019-03-24T08:55:01.242Z,14.20
2019-03-24T08:56:04.396Z,14.10
2019-03-24T08:57:07.885Z,14.20
2019-03-24T08:58:11.258Z,14.30
2019-03-24T08:59:14.392Z,14.30
2019-03-24T09:00:17.633Z,14.40
2019-03-24T09:01:21.130Z,14.50
2019-03-24T09:02:24.589Z,14.50
2019-03-24T09:03:27.859Z,14.60
2019-03-24T09:04:31.312Z,14.50
2019-03-24T09:05:34.511Z,14.50
2019-03-24T09:06:37.679Z,14.60
2019-03-24T09:07:40.832Z,14.50
2019-03-24T09:08:43.986Z,14.40
2019-03-24T09:09:47.203Z,14.30
2019-03-24T09:10:50.468Z,14.30
2019-03-24T09:11:53.812Z,14.20
2019-03-24T09:12:56.958Z,14.20
2019-03-24T09:14:00.606Z,14.00
2019-03-24T09:15:03.943Z,14.00
2019-03-24T09:16:07.474Z,13.90
2019-03-24T09:17:10.739Z,14.00
2019-03-24T09:18:14.180Z,13.90
2019-03-24T09:19:17.783Z,13.90
2019-03-24T09:20:21.074Z,14.00
2019-03-24T09:21:24.295Z,13.90
2019-03-24T09:22:27.761Z,13.90
2019-03-24T09:23:30.971Z,13.90
2019-03-24T09:24:34.162Z,14.00
2019-03-24T09:25:37.677Z,13.80
2019-03-24T09:26:41.201Z,13.70
2019-03-24T09:27:44.488Z,13.70
2019-03-24T09:28:47.778Z,13.70
2019-03-24T09:29:51.163Z,13.70
2019-03-24T09:30:54.303Z,13.60
2019-03-24T09:31:57.565Z,13.70
2019-03-24T09:33:00.950Z,13.70
2019-03-24T09:34:04.070Z,13.70
2019-03-24T09:35:07.341Z,13.60
2019-03-24T09:36:10.679Z,13.60
2019-03-24T09:37:14.206Z,13.60
2019-03-24T09:38:17.675Z,13.50
2019-03-24T09:39:21.010Z,13.40
2019-03-24T09:40:28.776Z,13.40
2019-03-24T09:41:32.078Z,13.40
2019-03-24T09:42:35.263Z,13.30
2019-03-24T09:43:38.613Z,13.20
2019-03-24T09:44:42.134Z,13.10
2019-03-24T09:45:45.291Z,13.10
2019-03-24T09:46:48.591Z,12.90
2019-03-24T09:47:51.700Z,12.80
2019-03-24T09:49:02.728Z,12.80
2019-03-24T09:50:00.329Z,12.80
2019-03-24T09:51:03.781Z,12.90
2019-03-24T09:52:07.252Z,13.00
2019-03-24T09:53:10.409Z,13.00
2019-03-24T09:54:13.643Z,13.00
2019-03-24T09:55:16.783Z,12.90
2019-03-24T09:56:20.070Z,12.80
2019-03-24T09:57:23.536Z,12.80
2019-03-24T09:58:26.918Z,12.60
2019-03-24T09:59:30.075Z,12.40
2019-03-24T10:00:33.561Z,12.50
2019-03-24T10:01:36.805Z,12.60
2019-03-24T10:02:39.944Z,12.60
2019-03-24T10:03:43.536Z,12.70
2019-03-24T10:04:46.711Z,12.70
2019-03-24T10:05:50.101Z,12.70
2019-03-24T10:06:53.351Z,12.30
2019-03-24T10:07:56.612Z,12.30
2019-03-24T10:08:59.874Z,12.30
2019-03-24T10:10:03.311Z,12.30
2019-03-24T10:11:06.719Z,12.20
2019-03-24T10:12:09.918Z,12.20
2019-03-24T10:13:13.420Z,12.20
2019-03-24T10:14:16.914Z,12.20
2019-03-24T10:15:20.354Z,12.40
2019-03-24T10:16:23.511Z,12.50
2019-03-24T10:17:26.939Z,12.50
2019-03-24T10:18:30.507Z,12.50
2019-03-24T10:19:33.730Z,12.50
2019-03-24T10:20:37.165Z,12.50
2019-03-24T10:21:40.420Z,12.60
2019-03-24T10:22:43.576Z,12.60
2019-03-24T10:23:46.882Z,12.50
2019-03-24T10:24:50.085Z,12.40
2019-03-24T10:25:53.241Z,12.30
2019-03-24T10:26:56.639Z,12.30
2019-03-24T10:28:00.036Z,12.40
2019-03-24T10:29:03.534Z,12.50
2019-03-24T10:30:07.170Z,12.50
2019-03-24T10:31:10.362Z,12.60
2019-03-24T10:32:13.566Z,12.60
2019-03-24T10:33:16.756Z,12.60
2019-03-24T10:34:20.117Z,12.70
2019-03-24T10:35:23.512Z,12.70
2019-03-24T10:36:26.603Z,12.70
2019-03-24T10:37:29.913Z,12.70
2019-03-24T10:38:33.163Z,12.80
2019-03-24T10:39:36.279Z,12.80
2019-03-24T10:40:39.548Z,12.80
2019-03-24T10:41:42.753Z,12.80
2019-03-24T10:42:46.010Z,12.80
2019-03-24T10:43:49.193Z,12.60
2019-03-24T10:44:53.117Z,12.60
2019-03-24T10:45:56.469Z,12.70
2019-03-24T10:46:59.945Z,12.60
2019-03-24T10:48:03.092Z,12.60
2019-03-24T10:49:06.236Z,12.60
2019-03-24T10:50:14.308Z,12.60
2019-03-24T10:51:17.527Z,12.60
2019-03-24T10:52:21.069Z,12.60
2019-03-24T10:53:24.264Z,12.60
2019-03-24T10:54:27.528Z,12.60
2019-03-24T10:55:30.865Z,12.60
2019-03-24T10:56:34.261Z,12.60
2019-03-24T10:57:38.098Z,12.70
2019-03-24T10:58:41.279Z,12.70
2019-03-24T10:59:44.590Z,12.80
2019-03-24T11:00:47.917Z,12.80
2019-03-24T11:01:51.311Z,12.80
2019-03-24T11:02:54.922Z,12.90
2019-03-24T11:03:58.310Z,12.90
2019-03-24T11:05:01.607Z,12.90
2019-03-24T11:06:05.121Z,12.90
2019-03-24T11:07:08.514Z,13.00
2019-03-24T11:08:11.990Z,13.00
2019-03-24T11:09:15.362Z,13.10
2019-03-24T11:10:18.875Z,13.10
2019-03-24T11:11:22.335Z,13.20
2019-03-24T11:12:25.561Z,13.20
2019-03-24T11:13:29.043Z,13.20
2019-03-24T11:14:32.433Z,13.10
2019-03-24T11:15:35.845Z,13.20
2019-03-24T11:16:39.188Z,13.20
2019-03-24T11:17:42.643Z,13.30
2019-03-24T11:18:46.037Z,13.30
2019-03-24T11:19:49.486Z,13.30
2019-03-24T11:20:52.766Z,13.30
2019-03-24T11:21:55.924Z,13.30
2019-03-24T11:22:59.190Z,13.30
2019-03-24T11:24:02.578Z,13.30
2019-03-24T11:25:07.971Z,13.40
2019-03-24T11:26:11.365Z,13.40
2019-03-24T11:27:14.611Z,13.50
2019-03-24T11:28:19.223Z,13.60
2019-03-24T11:29:22.971Z,13.60
2019-03-24T11:30:26.334Z,13.60
2019-03-24T11:31:29.533Z,13.70
2019-03-24T11:32:32.704Z,13.70
2019-03-24T11:33:37.463Z,13.60
2019-03-24T11:34:40.975Z,13.60
2019-03-24T11:35:44.441Z,13.70
2019-03-24T11:36:47.908Z,13.70
2019-03-24T11:37:51.141Z,13.80
2019-03-24T11:38:54.387Z,13.80
2019-03-24T11:39:57.736Z,13.80
2019-03-24T11:41:02.845Z,13.80
2019-03-24T11:42:07.203Z,13.70
2019-03-24T11:43:12.869Z,13.70
2019-03-24T11:44:16.646Z,13.60
2019-03-24T11:45:19.831Z,13.60
2019-03-24T11:46:23.172Z,13.70
2019-03-24T11:47:27.101Z,13.60
2019-03-24T11:48:30.522Z,13.60
2019-03-24T11:49:45.760Z,13.60
2019-03-24T11:50:41.897Z,13.60
2019-03-24T11:51:45.354Z,13.50
2019-03-24T11:52:48.835Z,13.50
2019-03-24T11:53:52.125Z,13.50
2019-03-24T11:54:55.386Z,13.50
2019-03-24T11:55:58.874Z,13.60
2019-03-24T11:57:02.236Z,13.50
2019-03-24T11:58:06.314Z,13.50
2019-03-24T11:59:09.763Z,13.50
2019-03-24T12:00:15.409Z,13.60
2019-03-24T12:01:18.623Z,13.70
2019-03-24T12:02:21.909Z,13.70
2019-03-24T12:03:25.523Z,13.70
2019-03-24T12:04:29.259Z,13.70
2019-03-24T12:05:35.241Z,13.70
2019-03-24T12:06:38.605Z,13.70
2019-03-24T12:07:41.782Z,13.60
2019-03-24T12:08:46.354Z,13.60
2019-03-24T12:09:49.553Z,13.60
2019-03-24T12:10:52.942Z,13.60
2019-03-24T12:11:56.303Z,13.70
2019-03-24T12:12:59.723Z,13.70
2019-03-24T12:14:02.947Z,13.60
2019-03-24T12:15:06.918Z,13.70
2019-03-24T12:16:10.279Z,13.70
2019-03-24T12:17:13.462Z,13.70
2019-03-24T12:18:16.887Z,13.70
2019-03-24T12:19:20.105Z,13.70
2019-03-24T12:20:23.265Z,13.70
2019-03-24T12:21:26.772Z,13.80
2019-03-24T12:22:29.941Z,13.70
2019-03-24T12:23:33.215Z,13.70
2019-03-24T12:24:36.786Z,13.70
2019-03-24T12:25:40.027Z,13.60
2019-03-24T12:26:43.493Z,13.70
2019-03-24T12:27:46.953Z,13.60
2019-03-24T12:28:50.153Z,13.70
2019-03-24T12:29:53.596Z,13.70
2019-03-24T12:30:56.952Z,13.60
2019-03-24T12:32:00.344Z,13.70
2019-03-24T12:33:04.140Z,13.60
2019-03-24T12:34:07.753Z,13.70
2019-03-24T12:35:11.011Z,13.60
2019-03-24T12:36:14.365Z,13.60
2019-03-24T12:37:17.527Z,13.60
2019-03-24T12:38:21.880Z,13.70
2019-03-24T12:39:25.146Z,13.50
2019-03-24T12:40:28.588Z,13.50
2019-03-24T12:41:31.767Z,13.50
2019-03-24T12:42:35.028Z,13.40
2019-03-24T12:43:38.284Z,13.50
2019-03-24T12:44:41.463Z,13.50
2019-03-24T12:45:44.711Z,13.50
2019-03-24T12:46:47.869Z,13.50
2019-03-24T12:47:51.067Z,13.50
2019-03-24T12:48:54.451Z,13.50
2019-03-24T12:50:08.334Z,13.50
2019-03-24T12:51:02.735Z,13.50
2019-03-24T12:52:05.910Z,13.40
2019-03-24T12:53:09.160Z,13.40
2019-03-24T12:54:12.665Z,13.40
2019-03-24T12:55:15.833Z,13.40
2019-03-24T12:56:21.264Z,13.50
2019-03-24T12:57:24.526Z,13.40
2019-03-24T12:58:27.733Z,13.40
2019-03-24T12:59:30.894Z,13.40
2019-03-24T13:00:38.736Z,13.40
2019-03-24T13:01:41.926Z,13.40
2019-03-24T13:02:45.100Z,13.40
2019-03-24T13:03:48.250Z,13.40
2019-03-24T13:04:51.439Z,13.40
2019-03-24T13:05:54.696Z,13.40
2019-03-24T13:06:57.915Z,13.30
2019-03-24T13:08:10.980Z,13.40
2019-03-24T13:09:14.389Z,13.50
2019-03-24T13:10:17.544Z,13.50
2019-03-24T13:11:20.849Z,13.60
2019-03-24T13:12:24.125Z,13.60
2019-03-24T13:13:28.952Z,13.60
2019-03-24T13:14:32.176Z,13.70
2019-03-24T13:15:35.623Z,13.60
2019-03-24T13:16:39.018Z,13.60
2019-03-24T13:17:42.484Z,13.60
2019-03-24T13:18:45.703Z,13.60
2019-03-24T13:19:49.030Z,13.50
2019-03-24T13:20:52.300Z,13.50
2019-03-24T13:21:55.530Z,13.50
2019-03-24T13:22:59.073Z,13.50
2019-03-24T13:24:02.282Z,13.50
2019-03-24T13:25:06.102Z,13.40
2019-03-24T13:26:09.366Z,13.40
2019-03-24T13:27:12.700Z,13.50
2019-03-24T13:28:15.992Z,13.50
2019-03-24T13:29:19.222Z,13.50
2019-03-24T13:30:22.437Z,13.50
2019-03-24T13:31:25.761Z,13.50
2019-03-24T13:32:28.998Z,13.60
2019-03-24T13:33:32.274Z,13.60
2019-03-24T13:34:35.509Z,13.60
2019-03-24T13:35:38.859Z,13.50
2019-03-24T13:36:42.027Z,13.50
2019-03-24T13:37:45.311Z,13.40
2019-03-24T13:38:48.489Z,13.40
2019-03-24T13:39:51.727Z,13.40
2019-03-24T13:40:54.927Z,13.40
2019-03-24T13:41:58.267Z,13.30
2019-03-24T13:43:02.621Z,13.40
2019-03-24T13:44:05.909Z,13.40
2019-03-24T13:45:09.099Z,13.40
2019-03-24T13:46:12.392Z,13.30
2019-03-24T13:47:15.554Z,13.30
2019-03-24T13:48:18.729Z,13.40
2019-03-24T13:49:22.011Z,13.40
2019-03-24T13:50:31.494Z,13.40
2019-03-24T13:51:30.688Z,13.40
2019-03-24T13:52:35.634Z,13.40
2019-03-24T13:53:39.185Z,13.40
2019-03-24T13:54:42.407Z,13.40